sensor_id;sensor_type;location;lat;lon;timestamp;pressure;altitude;pressure_sealevel;temperature;humidity
70841;BME280;58465;51.534;9.934;2023-03-14T00:02:17;97603.81;;;12.56;65.80
70841;BME280;58465;51.534;9.934;2023-03-14T00:04:46;97596.94;;;12.64;65.63
70841;BME280;58465;51.534;9.934;2023-03-14T00:07:12;97566.84;;;12.61;65.53
70841;BME280;58465;51.534;9.934;2023-03-14T00:09:38;97565.88;;;12.62;65.21
70841;BME280;58465;51.534;9.934;2023-03-14T00:12:03;97553.44;;;12.61;64.34
70841;BME280;58465;51.534;9.934;2023-03-14T00:14:30;97562.03;;;12.66;64.40
70841;BME280;58465;51.534;9.934;2023-03-14T00:16:56;97570.94;;;12.67;64.14
70841;BME280;58465;51.534;9.934;2023-03-14T00:19:21;97583.47;;;12.66;64.49
70841;BME280;58465;51.534;9.934;2023-03-14T00:21:46;97590.72;;;12.64;64.33
70841;BME280;58465;51.534;9.934;2023-03-14T00:24:12;97610.53;;;12.61;64.42
70841;BME280;58465;51.534;9.934;2023-03-14T00:26:38;97618.16;;;12.55;64.55
70841;BME280;58465;51.534;9.934;2023-03-14T00:29:03;97631.53;;;12.55;64.36
70841;BME280;58465;51.534;9.934;2023-03-14T00:31:28;97662.69;;;12.56;64.29
70841;BME280;58465;51.534;9.934;2023-03-14T00:33:53;97673.31;;;12.57;64.31
70841;BME280;58465;51.534;9.934;2023-03-14T00:36:19;97670.53;;;12.59;64.20
70841;BME280;58465;51.534;9.934;2023-03-14T00:38:47;97691.09;;;12.58;64.53
70841;BME280;58465;51.534;9.934;2023-03-14T00:41:15;97695.78;;;12.55;64.69
70841;BME280;58465;51.534;9.934;2023-03-14T00:43:41;97691.41;;;12.54;64.49
70841;BME280;58465;51.534;9.934;2023-03-14T00:46:07;97704.13;;;12.50;64.64
70841;BME280;58465;51.534;9.934;2023-03-14T00:48:33;97708.75;;;12.48;64.75
70841;BME280;58465;51.534;9.934;2023-03-14T00:50:59;97689.47;;;12.56;64.67
70841;BME280;58465;51.534;9.934;2023-03-14T00:53:24;97692.53;;;12.50;64.66
70841;BME280;58465;51.534;9.934;2023-03-14T00:55:50;97693.78;;;12.58;64.33
70841;BME280;58465;51.534;9.934;2023-03-14T00:58:16;97687.31;;;12.61;64.41
70841;BME280;58465;51.534;9.934;2023-03-14T01:00:42;97677.03;;;12.55;64.35
70841;BME280;58465;51.534;9.934;2023-03-14T01:03:10;97663.75;;;12.53;64.65
70841;BME280;58465;51.534;9.934;2023-03-14T01:05:35;97659.47;;;12.51;64.28
70841;BME280;58465;51.534;9.934;2023-03-14T01:08:01;97659.47;;;12.51;64.38
70841;BME280;58465;51.534;9.934;2023-03-14T01:10:26;97666.44;;;12.53;64.32
70841;BME280;58465;51.534;9.934;2023-03-14T01:12:52;97664.09;;;12.61;63.85
70841;BME280;58465;51.534;9.934;2023-03-14T01:15:17;97666.13;;;12.58;64.02
70841;BME280;58465;51.534;9.934;2023-03-14T01:17:43;97661.09;;;12.53;63.96
70841;BME280;58465;51.534;9.934;2023-03-14T01:20:11;97661.94;;;12.54;64.18
70841;BME280;58465;51.534;9.934;2023-03-14T01:22:37;97652.38;;;12.50;64.21
70841;BME280;58465;51.534;9.934;2023-03-14T01:25:08;97644.50;;;12.48;64.18
70841;BME280;58465;51.534;9.934;2023-03-14T01:27:34;97621.47;;;12.46;64.03
70841;BME280;58465;51.534;9.934;2023-03-14T01:29:59;97606.78;;;12.39;64.00
70841;BME280;58465;51.534;9.934;2023-03-14T01:32:25;97612.88;;;12.41;64.16
70841;BME280;58465;51.534;9.934;2023-03-14T01:34:51;97632.69;;;12.38;64.11
70841;BME280;58465;51.534;9.934;2023-03-14T01:37:16;97630.97;;;12.37;63.79
70841;BME280;58465;51.534;9.934;2023-03-14T01:39:41;97615.88;;;12.36;64.12
70841;BME280;58465;51.534;9.934;2023-03-14T01:42:07;97603.75;;;12.31;64.14
70841;BME280;58465;51.534;9.934;2023-03-14T01:44:51;97603.66;;;12.32;64.09
70841;BME280;58465;51.534;9.934;2023-03-14T01:47:17;97633.00;;;12.34;64.15
70841;BME280;58465;51.534;9.934;2023-03-14T01:49:45;97626.88;;;12.32;64.05
70841;BME280;58465;51.534;9.934;2023-03-14T01:52:13;97617.13;;;12.31;64.15
70841;BME280;58465;51.534;9.934;2023-03-14T01:54:54;97606.66;;;12.27;64.54
70841;BME280;58465;51.534;9.934;2023-03-14T01:57:24;97598.72;;;12.26;64.36
70841;BME280;58465;51.534;9.934;2023-03-14T01:59:58;97602.06;;;12.30;64.23
70841;BME280;58465;51.534;9.934;2023-03-14T02:02:26;97583.72;;;12.23;64.67
70841;BME280;58465;51.534;9.934;2023-03-14T02:04:54;97581.91;;;12.24;64.45
70841;BME280;58465;51.534;9.934;2023-03-14T02:07:22;97564.47;;;12.18;65.04
70841;BME280;58465;51.534;9.934;2023-03-14T02:09:48;97554.72;;;12.17;64.96
70841;BME280;58465;51.534;9.934;2023-03-14T02:12:16;97574.63;;;12.13;65.01
70841;BME280;58465;51.534;9.934;2023-03-14T02:14:43;97585.41;;;12.12;65.23
70841;BME280;58465;51.534;9.934;2023-03-14T02:17:13;97600.06;;;12.06;65.28
70841;BME280;58465;51.534;9.934;2023-03-14T02:19:50;97596.00;;;12.13;65.09
70841;BME280;58465;51.534;9.934;2023-03-14T02:22:21;97608.66;;;12.24;64.96
70841;BME280;58465;51.534;9.934;2023-03-14T02:27:43;97606.13;;;12.35;64.58
70841;BME280;58465;51.534;9.934;2023-03-14T02:30:15;97599.91;;;12.35;63.98
70841;BME280;58465;51.534;9.934;2023-03-14T02:32:45;97596.94;;;12.39;64.26
70841;BME280;58465;51.534;9.934;2023-03-14T02:35:15;97588.34;;;12.34;64.35
70841;BME280;58465;51.534;9.934;2023-03-14T02:37:46;97580.97;;;12.38;64.42
70841;BME280;58465;51.534;9.934;2023-03-14T02:40:13;97587.09;;;12.40;64.16
70841;BME280;58465;51.534;9.934;2023-03-14T02:42:38;97572.94;;;12.38;64.21
70841;BME280;58465;51.534;9.934;2023-03-14T02:47:37;97574.00;;;12.35;64.13
70841;BME280;58465;51.534;9.934;2023-03-14T02:50:09;97562.22;;;12.25;64.76
70841;BME280;58465;51.534;9.934;2023-03-14T02:52:36;97557.63;;;12.27;64.63
70841;BME280;58465;51.534;9.934;2023-03-14T02:55:02;97561.38;;;12.24;64.93
70841;BME280;58465;51.534;9.934;2023-03-14T02:57:28;97555.16;;;12.24;65.07
70841;BME280;58465;51.534;9.934;2023-03-14T02:59:53;97559.13;;;12.31;64.61
70841;BME280;58465;51.534;9.934;2023-03-14T03:02:18;97551.94;;;12.32;64.69
70841;BME280;58465;51.534;9.934;2023-03-14T03:04:44;97555.81;;;12.27;64.84
70841;BME280;58465;51.534;9.934;2023-03-14T03:07:09;97552.81;;;12.32;64.80
70841;BME280;58465;51.534;9.934;2023-03-14T03:09:34;97552.41;;;12.38;64.65
70841;BME280;58465;51.534;9.934;2023-03-14T03:12:00;97554.97;;;12.40;64.38
70841;BME280;58465;51.534;9.934;2023-03-14T03:14:25;97554.75;;;12.43;64.81
70841;BME280;58465;51.534;9.934;2023-03-14T03:16:50;97545.72;;;12.31;65.25
70841;BME280;58465;51.534;9.934;2023-03-14T03:19:15;97561.69;;;12.33;65.27
70841;BME280;58465;51.534;9.934;2023-03-14T03:21:43;97544.78;;;12.32;65.17
70841;BME280;58465;51.534;9.934;2023-03-14T03:24:08;97539.41;;;12.32;65.53
70841;BME280;58465;51.534;9.934;2023-03-14T03:26:34;97540.16;;;12.21;66.44
70841;BME280;58465;51.534;9.934;2023-03-14T03:29:00;97540.94;;;12.11;67.15
70841;BME280;58465;51.534;9.934;2023-03-14T03:31:25;97535.13;;;12.04;67.34
70841;BME280;58465;51.534;9.934;2023-03-14T03:33:50;97544.31;;;12.00;67.96
70841;BME280;58465;51.534;9.934;2023-03-14T03:36:21;97543.47;;;12.00;67.95
70841;BME280;58465;51.534;9.934;2023-03-14T03:38:46;97548.63;;;11.76;69.14
70841;BME280;58465;51.534;9.934;2023-03-14T03:41:11;97551.53;;;11.59;69.70
70841;BME280;58465;51.534;9.934;2023-03-14T03:43:37;97543.38;;;11.47;70.54
70841;BME280;58465;51.534;9.934;2023-03-14T03:46:05;97537.59;;;11.41;71.44
70841;BME280;58465;51.534;9.934;2023-03-14T03:48:31;97544.56;;;11.43;71.36
70841;BME280;58465;51.534;9.934;2023-03-14T03:50:56;97537.34;;;11.44;70.86
70841;BME280;58465;51.534;9.934;2023-03-14T03:53:21;97535.06;;;11.52;70.91
70841;BME280;58465;51.534;9.934;2023-03-14T03:55:47;97536.56;;;11.56;70.42
70841;BME280;58465;51.534;9.934;2023-03-14T03:58:12;97531.69;;;11.63;70.08
70841;BME280;58465;51.534;9.934;2023-03-14T04:00:37;97533.28;;;11.65;70.05
70841;BME280;58465;51.534;9.934;2023-03-14T04:03:04;97550.16;;;11.66;69.67
70841;BME280;58465;51.534;9.934;2023-03-14T04:05:29;97544.63;;;11.69;69.70
70841;BME280;58465;51.534;9.934;2023-03-14T04:07:54;97531.72;;;11.75;68.81
70841;BME280;58465;51.534;9.934;2023-03-14T04:10:20;97546.31;;;11.84;68.19
70841;BME280;58465;51.534;9.934;2023-03-14T04:12:45;97547.19;;;11.97;68.01
70841;BME280;58465;51.534;9.934;2023-03-14T04:15:11;97539.94;;;11.99;67.72
70841;BME280;58465;51.534;9.934;2023-03-14T04:17:36;97544.94;;;12.04;66.79
70841;BME280;58465;51.534;9.934;2023-03-14T04:20:02;97538.44;;;12.08;66.78
70841;BME280;58465;51.534;9.934;2023-03-14T04:22:28;97533.09;;;12.08;66.71
70841;BME280;58465;51.534;9.934;2023-03-14T04:24:53;97533.09;;;12.08;66.75
70841;BME280;58465;51.534;9.934;2023-03-14T04:27:18;97524.09;;;12.21;66.32
70841;BME280;58465;51.534;9.934;2023-03-14T04:29:43;97518.03;;;12.19;66.17
70841;BME280;58465;51.534;9.934;2023-03-14T04:32:09;97518.44;;;12.26;65.92
70841;BME280;58465;51.534;9.934;2023-03-14T04:34:34;97517.91;;;12.21;66.72
70841;BME280;58465;51.534;9.934;2023-03-14T04:36:59;97516.19;;;12.07;67.00
70841;BME280;58465;51.534;9.934;2023-03-14T04:39:25;97516.53;;;11.76;69.09
70841;BME280;58465;51.534;9.934;2023-03-14T04:41:50;97529.66;;;11.39;71.51
70841;BME280;58465;51.534;9.934;2023-03-14T04:44:15;97520.81;;;11.25;72.58
70841;BME280;58465;51.534;9.934;2023-03-14T04:46:40;97520.28;;;11.20;72.96
70841;BME280;58465;51.534;9.934;2023-03-14T04:49:06;97508.47;;;11.09;73.75
70841;BME280;58465;51.534;9.934;2023-03-14T04:51:31;97501.81;;;11.02;73.91
70841;BME280;58465;51.534;9.934;2023-03-14T04:53:56;97509.25;;;10.97;74.22
70841;BME280;58465;51.534;9.934;2023-03-14T04:56:22;97504.00;;;10.96;74.35
70841;BME280;58465;51.534;9.934;2023-03-14T04:58:47;97502.31;;;10.95;74.08
70841;BME280;58465;51.534;9.934;2023-03-14T05:01:12;97496.31;;;10.91;74.65
70841;BME280;58465;51.534;9.934;2023-03-14T05:03:38;97495.72;;;10.86;74.51
70841;BME280;58465;51.534;9.934;2023-03-14T05:06:04;97495.53;;;10.89;74.71
70841;BME280;58465;51.534;9.934;2023-03-14T05:08:29;97504.41;;;10.90;74.62
70841;BME280;58465;51.534;9.934;2023-03-14T05:10:56;97496.22;;;10.93;74.42
70841;BME280;58465;51.534;9.934;2023-03-14T05:13:22;97495.63;;;10.88;74.29
70841;BME280;58465;51.534;9.934;2023-03-14T05:15:47;97486.75;;;10.87;73.82
70841;BME280;58465;51.534;9.934;2023-03-14T05:18:12;97490.13;;;10.76;73.70
70841;BME280;58465;51.534;9.934;2023-03-14T05:20:37;97493.78;;;10.75;73.65
70841;BME280;58465;51.534;9.934;2023-03-14T05:23:03;97492.50;;;10.81;73.26
70841;BME280;58465;51.534;9.934;2023-03-14T05:25:28;97509.28;;;10.83;73.10
70841;BME280;58465;51.534;9.934;2023-03-14T05:27:54;97497.84;;;10.95;72.67
70841;BME280;58465;51.534;9.934;2023-03-14T05:30:20;97496.25;;;11.05;72.37
70841;BME280;58465;51.534;9.934;2023-03-14T05:32:46;97499.94;;;11.17;71.74
70841;BME280;58465;51.534;9.934;2023-03-14T05:35:12;97498.38;;;11.27;71.33
70841;BME280;58465;51.534;9.934;2023-03-14T05:37:37;97497.16;;;11.33;70.86
70841;BME280;58465;51.534;9.934;2023-03-14T05:40:03;97509.13;;;11.40;70.49
70841;BME280;58465;51.534;9.934;2023-03-14T05:42:36;97506.63;;;11.51;70.15
70841;BME280;58465;51.534;9.934;2023-03-14T05:45:01;97501.66;;;11.45;69.79
70841;BME280;58465;51.534;9.934;2023-03-14T05:47:26;97498.19;;;11.57;69.84
70841;BME280;58465;51.534;9.934;2023-03-14T05:49:51;97503.00;;;11.65;69.50
70841;BME280;58465;51.534;9.934;2023-03-14T05:52:17;97503.66;;;11.68;68.50
70841;BME280;58465;51.534;9.934;2023-03-14T05:54:42;97506.72;;;11.76;68.99
70841;BME280;58465;51.534;9.934;2023-03-14T05:57:07;97512.81;;;11.78;68.67
70841;BME280;58465;51.534;9.934;2023-03-14T05:59:33;97508.44;;;11.77;68.04
70841;BME280;58465;51.534;9.934;2023-03-14T06:01:58;97517.84;;;11.83;67.81
70841;BME280;58465;51.534;9.934;2023-03-14T06:04:24;97513.69;;;11.79;68.05
70841;BME280;58465;51.534;9.934;2023-03-14T06:06:50;97516.03;;;11.83;68.09
70841;BME280;58465;51.534;9.934;2023-03-14T06:09:15;97517.50;;;11.75;67.80
70841;BME280;58465;51.534;9.934;2023-03-14T06:11:46;97508.56;;;11.88;67.56
70841;BME280;58465;51.534;9.934;2023-03-14T06:14:12;97504.16;;;11.87;67.44
70841;BME280;58465;51.534;9.934;2023-03-14T06:16:37;97503.25;;;11.74;67.10
70841;BME280;58465;51.534;9.934;2023-03-14T06:19:02;97505.13;;;11.86;66.71
70841;BME280;58465;51.534;9.934;2023-03-14T06:21:27;97491.13;;;11.96;66.54
70841;BME280;58465;51.534;9.934;2023-03-14T06:23:53;97497.00;;;11.88;66.17
70841;BME280;58465;51.534;9.934;2023-03-14T06:26:18;97482.16;;;11.97;65.66
70841;BME280;58465;51.534;9.934;2023-03-14T06:28:43;97483.88;;;11.98;65.73
70841;BME280;58465;51.534;9.934;2023-03-14T06:31:09;97479.38;;;11.98;65.58
70841;BME280;58465;51.534;9.934;2023-03-14T06:33:34;97481.00;;;12.01;65.70
70841;BME280;58465;51.534;9.934;2023-03-14T06:35:59;97472.53;;;12.07;65.51
70841;BME280;58465;51.534;9.934;2023-03-14T06:38:25;97471.38;;;12.11;65.22
70841;BME280;58465;51.534;9.934;2023-03-14T06:40:50;97460.13;;;12.06;64.59
70841;BME280;58465;51.534;9.934;2023-03-14T06:43:15;97461.38;;;12.13;64.41
70841;BME280;58465;51.534;9.934;2023-03-14T06:45:41;97465.69;;;12.28;63.70
70841;BME280;58465;51.534;9.934;2023-03-14T06:48:06;97453.47;;;12.37;63.80
70841;BME280;58465;51.534;9.934;2023-03-14T06:50:31;97460.97;;;12.32;63.36
70841;BME280;58465;51.534;9.934;2023-03-14T06:52:57;97454.84;;;12.42;63.15
70841;BME280;58465;51.534;9.934;2023-03-14T06:55:23;97462.22;;;12.51;63.11
70841;BME280;58465;51.534;9.934;2023-03-14T06:57:49;97453.88;;;12.56;62.65
70841;BME280;58465;51.534;9.934;2023-03-14T07:00:15;97462.00;;;12.54;62.62
70841;BME280;58465;51.534;9.934;2023-03-14T07:02:41;97455.81;;;12.54;62.94
70841;BME280;58465;51.534;9.934;2023-03-14T07:05:06;97459.44;;;12.66;62.68
70841;BME280;58465;51.534;9.934;2023-03-14T07:07:32;97453.63;;;12.72;62.44
70841;BME280;58465;51.534;9.934;2023-03-14T07:09:57;97449.97;;;12.73;62.22
70841;BME280;58465;51.534;9.934;2023-03-14T07:12:22;97451.47;;;12.77;61.77
70841;BME280;58465;51.534;9.934;2023-03-14T07:14:48;97451.59;;;12.75;62.35
70841;BME280;58465;51.534;9.934;2023-03-14T07:17:13;97436.41;;;12.63;62.60
70841;BME280;58465;51.534;9.934;2023-03-14T07:19:38;97440.56;;;12.67;62.81
70841;BME280;58465;51.534;9.934;2023-03-14T07:22:05;97424.06;;;12.73;62.61
70841;BME280;58465;51.534;9.934;2023-03-14T07:24:30;97436.78;;;12.82;62.13
70841;BME280;58465;51.534;9.934;2023-03-14T07:26:56;97431.78;;;12.65;62.96
70841;BME280;58465;51.534;9.934;2023-03-14T07:29:21;97428.00;;;12.80;62.82
70841;BME280;58465;51.534;9.934;2023-03-14T07:31:47;97425.66;;;12.76;62.53
70841;BME280;58465;51.534;9.934;2023-03-14T07:34:13;97442.28;;;12.68;62.49
70841;BME280;58465;51.534;9.934;2023-03-14T07:36:39;97437.50;;;12.48;62.99
70841;BME280;58465;51.534;9.934;2023-03-14T07:39:04;97435.31;;;12.78;62.47
70841;BME280;58465;51.534;9.934;2023-03-14T07:41:31;97446.25;;;12.99;61.81
70841;BME280;58465;51.534;9.934;2023-03-14T07:43:56;97447.22;;;12.98;61.99
70841;BME280;58465;51.534;9.934;2023-03-14T07:46:21;97460.28;;;13.02;61.53
70841;BME280;58465;51.534;9.934;2023-03-14T07:48:47;97464.56;;;13.05;61.54
70841;BME280;58465;51.534;9.934;2023-03-14T07:51:12;97465.44;;;13.06;61.89
70841;BME280;58465;51.534;9.934;2023-03-14T07:53:38;97469.06;;;13.05;61.73
70841;BME280;58465;51.534;9.934;2023-03-14T07:56:04;97462.31;;;12.99;61.29
70841;BME280;58465;51.534;9.934;2023-03-14T07:58:32;97458.38;;;12.92;61.32
70841;BME280;58465;51.534;9.934;2023-03-14T08:00:58;97470.78;;;13.06;61.43
70841;BME280;58465;51.534;9.934;2023-03-14T08:03:25;97471.28;;;13.11;61.40
70841;BME280;58465;51.534;9.934;2023-03-14T08:05:50;97464.69;;;13.04;60.82
70841;BME280;58465;51.534;9.934;2023-03-14T08:08:17;97464.50;;;12.94;60.84
70841;BME280;58465;51.534;9.934;2023-03-14T08:10:42;97460.19;;;13.04;61.21
70841;BME280;58465;51.534;9.934;2023-03-14T08:13:09;97457.03;;;13.23;60.34
70841;BME280;58465;51.534;9.934;2023-03-14T08:15:34;97456.19;;;13.22;60.41
70841;BME280;58465;51.534;9.934;2023-03-14T08:18:02;97456.22;;;13.33;60.54
70841;BME280;58465;51.534;9.934;2023-03-14T08:20:28;97461.81;;;13.54;59.84
70841;BME280;58465;51.534;9.934;2023-03-14T08:22:58;97459.28;;;13.64;59.78
70841;BME280;58465;51.534;9.934;2023-03-14T08:25:25;97454.38;;;13.58;59.22
70841;BME280;58465;51.534;9.934;2023-03-14T08:27:50;97460.06;;;13.42;59.78
70841;BME280;58465;51.534;9.934;2023-03-14T08:30:17;97465.41;;;13.42;59.94
70841;BME280;58465;51.534;9.934;2023-03-14T08:32:43;97462.38;;;13.47;60.12
70841;BME280;58465;51.534;9.934;2023-03-14T08:35:09;97469.88;;;13.54;59.92
70841;BME280;58465;51.534;9.934;2023-03-14T08:37:35;97456.72;;;13.62;59.76
70841;BME280;58465;51.534;9.934;2023-03-14T08:40:02;97456.03;;;13.48;60.27
70841;BME280;58465;51.534;9.934;2023-03-14T08:42:32;97452.16;;;13.28;60.84
70841;BME280;58465;51.534;9.934;2023-03-14T08:44:57;97456.47;;;13.30;60.92
70841;BME280;58465;51.534;9.934;2023-03-14T08:47:22;97462.19;;;13.37;60.65
70841;BME280;58465;51.534;9.934;2023-03-14T08:49:48;97464.34;;;13.45;60.48
70841;BME280;58465;51.534;9.934;2023-03-14T08:52:13;97473.41;;;13.31;61.31
70841;BME280;58465;51.534;9.934;2023-03-14T08:54:38;97467.88;;;13.45;60.91
70841;BME280;58465;51.534;9.934;2023-03-14T08:57:03;97480.41;;;13.45;60.68
70841;BME280;58465;51.534;9.934;2023-03-14T08:59:29;97472.44;;;13.32;60.71
70841;BME280;58465;51.534;9.934;2023-03-14T09:01:54;97468.88;;;13.31;60.97
70841;BME280;58465;51.534;9.934;2023-03-14T09:04:21;97474.59;;;13.51;60.82
70841;BME280;58465;51.534;9.934;2023-03-14T09:06:47;97479.72;;;13.54;60.17
70841;BME280;58465;51.534;9.934;2023-03-14T09:09:12;97479.75;;;13.65;60.07
70841;BME280;58465;51.534;9.934;2023-03-14T09:11:39;97471.53;;;13.55;60.13
70841;BME280;58465;51.534;9.934;2023-03-14T09:14:04;97477.00;;;13.78;59.92
70841;BME280;58465;51.534;9.934;2023-03-14T09:16:30;97470.63;;;14.02;58.88
70841;BME280;58465;51.534;9.934;2023-03-14T09:18:55;97474.97;;;13.81;59.37
70841;BME280;58465;51.534;9.934;2023-03-14T09:21:25;97479.84;;;13.87;59.19
70841;BME280;58465;51.534;9.934;2023-03-14T09:23:50;97477.44;;;13.95;59.35
70841;BME280;58465;51.534;9.934;2023-03-14T09:26:16;97480.78;;;14.21;57.99
70841;BME280;58465;51.534;9.934;2023-03-14T09:28:42;97489.19;;;14.17;58.06
70841;BME280;58465;51.534;9.934;2023-03-14T09:31:10;97478.16;;;14.55;57.61
70841;BME280;58465;51.534;9.934;2023-03-14T09:33:37;97480.13;;;14.53;57.58
70841;BME280;58465;51.534;9.934;2023-03-14T09:36:03;97473.91;;;14.63;57.11
70841;BME280;58465;51.534;9.934;2023-03-14T09:38:29;97477.47;;;14.18;58.10
70841;BME280;58465;51.534;9.934;2023-03-14T09:41:00;97477.25;;;14.21;58.06
70841;BME280;58465;51.534;9.934;2023-03-14T09:43:29;97479.69;;;14.35;57.80
70841;BME280;58465;51.534;9.934;2023-03-14T09:45:56;97472.69;;;14.56;57.32
70841;BME280;58465;51.534;9.934;2023-03-14T09:48:30;97470.81;;;14.90;56.29
70841;BME280;58465;51.534;9.934;2023-03-14T09:50:58;97465.22;;;14.71;56.86
70841;BME280;58465;51.534;9.934;2023-03-14T09:53:35;97461.91;;;15.01;56.19
70841;BME280;58465;51.534;9.934;2023-03-14T09:56:02;97454.28;;;15.28;55.41
70841;BME280;58465;51.534;9.934;2023-03-14T09:58:29;97458.09;;;15.57;54.40
70841;BME280;58465;51.534;9.934;2023-03-14T10:00:56;97468.50;;;15.51;54.11
70841;BME280;58465;51.534;9.934;2023-03-14T10:03:32;97474.56;;;15.21;55.42
70841;BME280;58465;51.534;9.934;2023-03-14T10:05:58;97471.28;;;15.17;55.60
70841;BME280;58465;51.534;9.934;2023-03-14T10:08:23;97457.44;;;15.33;55.38
70841;BME280;58465;51.534;9.934;2023-03-14T10:10:53;97467.25;;;15.66;54.73
70841;BME280;58465;51.534;9.934;2023-03-14T10:13:23;97472.28;;;15.59;54.31
70841;BME280;58465;51.534;9.934;2023-03-14T10:16:05;97467.31;;;15.55;55.13
70841;BME280;58465;51.534;9.934;2023-03-14T10:18:33;97464.50;;;15.56;54.58
70841;BME280;58465;51.534;9.934;2023-03-14T10:21:26;97469.59;;;15.59;54.75
70841;BME280;58465;51.534;9.934;2023-03-14T10:24:30;97464.84;;;15.41;55.28
70841;BME280;58465;51.534;9.934;2023-03-14T10:27:34;97476.09;;;15.57;54.94
70841;BME280;58465;51.534;9.934;2023-03-14T10:30:43;97474.25;;;15.57;54.91
70841;BME280;58465;51.534;9.934;2023-03-14T10:33:37;97477.41;;;15.94;54.49
70841;BME280;58465;51.534;9.934;2023-03-14T10:42:02;97478.03;;;15.66;56.30
70841;BME280;58465;51.534;9.934;2023-03-14T10:44:43;97464.78;;;15.74;56.08
70841;BME280;58465;51.534;9.934;2023-03-14T10:47:23;97475.50;;;15.85;55.67
70841;BME280;58465;51.534;9.934;2023-03-14T10:49:49;97472.78;;;16.06;54.81
70841;BME280;58465;51.534;9.934;2023-03-14T10:52:27;97472.72;;;15.21;56.81
70841;BME280;58465;51.534;9.934;2023-03-14T10:58:48;97474.13;;;15.05;57.52
70841;BME280;58465;51.534;9.934;2023-03-14T11:03:37;97479.91;;;15.54;56.22
70841;BME280;58465;51.534;9.934;2023-03-14T11:06:25;97478.38;;;15.93;55.56
70841;BME280;58465;51.534;9.934;2023-03-14T11:09:36;97469.97;;;15.87;55.26
70841;BME280;58465;51.534;9.934;2023-03-14T11:11:45;97461.16;;;16.06;54.49
70841;BME280;58465;51.534;9.934;2023-03-14T11:14:18;97478.53;;;16.13;54.73
70841;BME280;58465;51.534;9.934;2023-03-14T11:17:29;97469.06;;;15.98;54.81
70841;BME280;58465;51.534;9.934;2023-03-14T11:20:42;97467.63;;;15.62;56.03
70841;BME280;58465;51.534;9.934;2023-03-14T11:23:24;97473.44;;;15.99;54.99
70841;BME280;58465;51.534;9.934;2023-03-14T11:29:28;97460.75;;;16.52;52.88
70841;BME280;58465;51.534;9.934;2023-03-14T11:32:03;97460.59;;;16.74;52.92
70841;BME280;58465;51.534;9.934;2023-03-14T11:34:56;97450.19;;;16.90;51.74
70841;BME280;58465;51.534;9.934;2023-03-14T11:37:54;97449.25;;;17.11;51.55
70841;BME280;58465;51.534;9.934;2023-03-14T11:40:34;97452.06;;;16.69;52.19
70841;BME280;58465;51.534;9.934;2023-03-14T11:43:42;97443.13;;;16.68;52.27
70841;BME280;58465;51.534;9.934;2023-03-14T11:46:18;97438.00;;;16.45;52.60
70841;BME280;58465;51.534;9.934;2023-03-14T11:52:05;97432.47;;;16.16;54.11
70841;BME280;58465;51.534;9.934;2023-03-14T11:55:05;97430.69;;;15.64;54.76
70841;BME280;58465;51.534;9.934;2023-03-14T11:59:12;97434.75;;;15.58;55.32
70841;BME280;58465;51.534;9.934;2023-03-14T12:01:17;97437.66;;;15.66;55.49
70841;BME280;58465;51.534;9.934;2023-03-14T12:03:54;97433.88;;;15.57;57.71
70841;BME280;58465;51.534;9.934;2023-03-14T12:06:33;97444.59;;;15.37;59.57
70841;BME280;58465;51.534;9.934;2023-03-14T12:09:05;97448.22;;;14.93;62.11
70841;BME280;58465;51.534;9.934;2023-03-14T12:11:37;97457.41;;;14.45;63.19
70841;BME280;58465;51.534;9.934;2023-03-14T12:14:17;97460.81;;;13.79;66.84
70841;BME280;58465;51.534;9.934;2023-03-14T12:16:48;97460.16;;;13.41;68.83
70841;BME280;58465;51.534;9.934;2023-03-14T12:21:49;97468.91;;;12.82;72.69
70841;BME280;58465;51.534;9.934;2023-03-14T12:24:19;97475.50;;;12.66;73.86
70841;BME280;58465;51.534;9.934;2023-03-14T12:26:57;97505.59;;;12.56;75.60
70841;BME280;58465;51.534;9.934;2023-03-14T12:29:26;97541.91;;;12.35;77.28
70841;BME280;58465;51.534;9.934;2023-03-14T12:32:06;97566.88;;;11.69;78.47
70841;BME280;58465;51.534;9.934;2023-03-14T12:34:33;97588.19;;;11.15;78.95
70841;BME280;58465;51.534;9.934;2023-03-14T12:37:37;97593.56;;;10.87;78.59
70841;BME280;58465;51.534;9.934;2023-03-14T12:40:29;97599.50;;;10.64;78.48
70841;BME280;58465;51.534;9.934;2023-03-14T12:42:58;97609.13;;;10.66;78.39
70841;BME280;58465;51.534;9.934;2023-03-14T12:45:35;97605.47;;;10.67;77.75
70841;BME280;58465;51.534;9.934;2023-03-14T12:48:19;97622.09;;;10.72;77.59
70841;BME280;58465;51.534;9.934;2023-03-14T12:50:56;97636.47;;;10.98;77.81
70841;BME280;58465;51.534;9.934;2023-03-14T12:56:38;97662.84;;;10.46;78.10
70841;BME280;58465;51.534;9.934;2023-03-14T13:02:14;97691.91;;;10.05;77.56
70841;BME280;58465;51.534;9.934;2023-03-14T13:04:50;97709.38;;;9.63;77.22
70841;BME280;58465;51.534;9.934;2023-03-14T13:10:30;97744.81;;;9.65;75.98
70841;BME280;58465;51.534;9.934;2023-03-14T13:13:25;97755.34;;;8.85;75.28
70841;BME280;58465;51.534;9.934;2023-03-14T13:16:02;97759.59;;;8.72;75.36
70841;BME280;58465;51.534;9.934;2023-03-14T13:19:02;97782.22;;;8.64;75.24
70841;BME280;58465;51.534;9.934;2023-03-14T13:21:53;97820.00;;;8.53;75.99
70841;BME280;58465;51.534;9.934;2023-03-14T13:24:45;97838.13;;;8.07;73.38
70841;BME280;58465;51.534;9.934;2023-03-14T13:27:19;97843.53;;;7.68;72.95
70841;BME280;58465;51.534;9.934;2023-03-14T13:29:50;97847.53;;;7.58;73.44
70841;BME280;58465;51.534;9.934;2023-03-14T13:32:28;97870.16;;;7.67;72.96
70841;BME280;58465;51.534;9.934;2023-03-14T13:35:02;97890.84;;;7.98;72.51
70841;BME280;58465;51.534;9.934;2023-03-14T13:37:27;97906.16;;;7.93;71.68
70841;BME280;58465;51.534;9.934;2023-03-14T13:40:17;97920.81;;;7.82;69.43
70841;BME280;58465;51.534;9.934;2023-03-14T13:46:17;97959.16;;;7.77;67.30
70841;BME280;58465;51.534;9.934;2023-03-14T13:49:00;97984.13;;;7.73;66.14
70841;BME280;58465;51.534;9.934;2023-03-14T13:55:15;98032.16;;;7.26;65.55
70841;BME280;58465;51.534;9.934;2023-03-14T13:58:01;98068.47;;;7.26;65.70